Herbert — DC7798 — position and weather

sailwx.info

Track history (hours):
 
Tides and Currents Weather Stations Pressure Air Temp Water Temp Dewpoint Dewpoint Depression Visibility Wind Speed Wind Dir Waves Ship Positions

Herbert

Last reported at 2018-Jun-24 15:10 UTC. Time now 2018-Jun-25 05:41 UTC.
Position N 48°10' E 016°29'.

Length 80 m; draft 0.1 m.

Type: Ship. MMSI: 211625650.

Date/timePositionNaut miles runAvg speedWind from/ knotsBaromVisibWave heightAir tempDewpointWater temp
2018-Jun-24 15:10N 48°10' E 016°29'10 2.2
2018-Jun-24 10:31N 48°08' E 016°44'2 2.1
2018-Jun-24 09:26N 48°07' E 016°47'2 2.2
2018-Jun-24 08:22N 48°07' E 016°51'1 2.6
2018-Jun-24 07:50N 48°08' E 016°53'1 2.2
2018-Jun-24 07:31N 48°08' E 016°53'1 2.2
2018-Jun-24 07:00N 48°09' E 016°55'1 2.1
2018-Jun-24 06:30N 48°09' E 016°56'1 2.3
2018-Jun-24 06:01N 48°10' E 016°57'1 2.0
2018-Jun-24 05:30N 48°10' E 016°59'1 2.5
2018-Jun-24 05:01N 48°09' E 017°00'1 2.5
2018-Jun-24 04:30N 48°09' E 017°01'1 2.7
2018-Jun-24 04:00N 48°09' E 017°03'1 2.2
2018-Jun-24 03:30N 48°08' E 017°05'0 0.1
2018-Jun-24 03:00N 48°08' E 017°05'0 0.0
2018-Jun-24 02:27N 48°08' E 017°05'0 0.0
2018-Jun-24 01:53N 48°08' E 017°05'0 0.0
2018-Jun-24 01:22N 48°08' E 017°05'0 0.0
2018-Jun-24 00:57N 48°08' E 017°05'0 0.0
2018-Jun-24 00:26N 48°08' E 017°05'0 0.0
2018-Jun-23 23:56N 48°08' E 017°05'0 0.0
2018-Jun-23 23:23N 48°08' E 017°05'0 0.0
2018-Jun-23 22:58N 48°08' E 017°05'0 0.0
2018-Jun-23 22:23N 48°08' E 017°05'0 0.0
2018-Jun-23 21:58N 48°08' E 017°05'0 0.0
2018-Jun-23 21:23N 48°08' E 017°05'0 0.0
2018-Jun-23 20:53N 48°08' E 017°05'0 0.0
2018-Jun-23 20:30N 48°08' E 017°05'0 0.0
2018-Jun-23 19:48N 48°08' E 017°05'0 0.0
2018-Jun-23 19:18N 48°08' E 017°05'0 0.0
2018-Jun-23 18:38N 48°08' E 017°05'0 0.0
2018-Jun-23 18:17N 48°08' E 017°05'0 0.0
2018-Jun-23 17:56N 48°08' E 017°05'0 0.0
2018-Jun-23 17:23N 48°08' E 017°05'0 0.0
2018-Jun-23 16:59N 48°08' E 017°05'0 0.0
2018-Jun-23 16:31N 48°08' E 017°05'0 0.0
2018-Jun-23 16:00N 48°08' E 017°05'1 1.6
2018-Jun-23 15:31N 48°08' E 017°06'1 2.2
2018-Jun-23 15:00N 48°08' E 017°08'1 2.5
2018-Jun-23 14:31N 48°07' E 017°09'1 3.0
2018-Jun-23 14:00N 48°06' E 017°09'2 3.3
2018-Jun-23 13:31N 48°04' E 017°10'2 3.3
2018-Jun-23 13:01N 48°03' E 017°12'2 3.9
2018-Jun-23 12:30N 48°02' E 017°14'2 4.4
2018-Jun-23 12:00N 48°01' E 017°17'2 4.6
2018-Jun-23 11:30N 48°00' E 017°20'2 4.9
2018-Jun-23 11:00N 47°59' E 017°23'2 4.9
2018-Jun-23 10:31N 47°57' E 017°26'3 5.2
2018-Jun-23 10:01N 47°55' E 017°29'3 5.5
2018-Jun-23 09:31N 47°54' E 017°32'1 1.6
2018-Jun-23 08:59N 47°53' E 017°32'1 2.8
2018-Jun-23 08:30N 47°52' E 017°34'2 4.4
2018-Jun-23 08:00N 47°50' E 017°36'2 4.2
2018-Jun-23 07:30N 47°48' E 017°38'2 3.3
2018-Jun-23 06:52N 47°47' E 017°40'2 2.5
2018-Jun-23 06:09N 47°46' E 017°42'  
2018-Jun-18 00:22N 46°01' E 018°41'0 0.0
2018-Jun-17 22:14N 46°01' E 018°41'0 0.0
2018-Jun-17 21:20N 46°01' E 018°41'10 0.6
2018-Jun-17 05:01N 46°08' E 018°50'110.4
2018-Jun-17 04:58N 46°09' E 018°50'75 4.0
2018-Jun-16 10:10N 47°23' E 019°00'2 9.9
2018-Jun-16 10:00N 47°24' E 019°02'510.1
2018-Jun-16 09:30N 47°29' E 019°03'5 9.6
2018-Jun-16 09:00N 47°34' E 019°04'48 2.8
2018-Jun-15 15:45N 47°44' E 017°54'510.4
2018-Jun-15 15:17N 47°45' E 017°46'311.2
2018-Jun-15 15:00N 47°46' E 017°42'611.3
2018-Jun-15 14:30N 47°50' E 017°36'4 8.5
2018-Jun-15 14:00N 47°53' E 017°32'0 0.8
2018-Jun-15 13:31N 47°53' E 017°32'2 4.1
2018-Jun-15 13:00N 47°55' E 017°30'2 4.8
2018-Jun-15 12:30N 47°56' E 017°27'4 7.7
2018-Jun-15 12:00N 47°59' E 017°23'4 8.2
2018-Jun-15 11:30N 48°00' E 017°17'4 8.9
2018-Jun-15 11:00N 48°03' E 017°12'5 9.4
2018-Jun-15 10:31N 48°07' E 017°09'510.4
2018-Jun-15 10:00N 48°09' E 017°01'5 9.3
2018-Jun-15 09:31N 48°09' E 016°54'611.5
2018-Jun-15 08:58N 48°08' E 016°45'1111.8
2018-Jun-15 08:03N 48°10' E 016°29'0 8.5
2018-Jun-15 08:00N 48°10' E 016°29'0 0.7
2018-Jun-15 07:29N 48°11' E 016°29'3 4.6
2018-Jun-15 06:45N 48°13' E 016°25'0 0.0
2018-Jun-15 06:07N 48°13' E 016°25'0 0.0
2018-Jun-15 05:55N 48°13' E 016°25'  
Track history (hours):
 
Tides and Currents Weather Stations Pressure Air Temp Water Temp Dewpoint Dewpoint Depression Visibility Wind Speed Wind Dir Waves Ship Positions

Herbert

Last reported at 2018-Jun-24 15:10 UTC. Time now 2018-Jun-25 05:41 UTC.
Position N 48°10' E 016°29'.

Length 80 m; draft 0.1 m.

Type: Ship. MMSI: 211625650.

Date/timePositionNaut miles runAvg speedWind from/ knotsBaromVisibWave heightAir tempDewpointWater temp
2018-Jun-24 15:10N 48°10' E 016°29'10 2.2
2018-Jun-24 10:31N 48°08' E 016°44'2 2.1
2018-Jun-24 09:26N 48°07' E 016°47'2 2.2
2018-Jun-24 08:22N 48°07' E 016°51'1 2.6
2018-Jun-24 07:50N 48°08' E 016°53'1 2.2
2018-Jun-24 07:31N 48°08' E 016°53'1 2.2
2018-Jun-24 07:00N 48°09' E 016°55'1 2.1
2018-Jun-24 06:30N 48°09' E 016°56'1 2.3
2018-Jun-24 06:01N 48°10' E 016°57'1 2.0
2018-Jun-24 05:30N 48°10' E 016°59'1 2.5
2018-Jun-24 05:01N 48°09' E 017°00'1 2.5
2018-Jun-24 04:30N 48°09' E 017°01'1 2.7
2018-Jun-24 04:00N 48°09' E 017°03'1 2.2
2018-Jun-24 03:30N 48°08' E 017°05'0 0.1
2018-Jun-24 03:00N 48°08' E 017°05'0 0.0
2018-Jun-24 02:27N 48°08' E 017°05'0 0.0
2018-Jun-24 01:53N 48°08' E 017°05'0 0.0
2018-Jun-24 01:22N 48°08' E 017°05'0 0.0
2018-Jun-24 00:57N 48°08' E 017°05'0 0.0
2018-Jun-24 00:26N 48°08' E 017°05'0 0.0
2018-Jun-23 23:56N 48°08' E 017°05'0 0.0
2018-Jun-23 23:23N 48°08' E 017°05'0 0.0
2018-Jun-23 22:58N 48°08' E 017°05'0 0.0
2018-Jun-23 22:23N 48°08' E 017°05'0 0.0
2018-Jun-23 21:58N 48°08' E 017°05'0 0.0
2018-Jun-23 21:23N 48°08' E 017°05'0 0.0
2018-Jun-23 20:53N 48°08' E 017°05'0 0.0
2018-Jun-23 20:30N 48°08' E 017°05'0 0.0
2018-Jun-23 19:48N 48°08' E 017°05'0 0.0
2018-Jun-23 19:18N 48°08' E 017°05'0 0.0
2018-Jun-23 18:38N 48°08' E 017°05'0 0.0
2018-Jun-23 18:17N 48°08' E 017°05'0 0.0
2018-Jun-23 17:56N 48°08' E 017°05'0 0.0
2018-Jun-23 17:23N 48°08' E 017°05'0 0.0
2018-Jun-23 16:59N 48°08' E 017°05'0 0.0
2018-Jun-23 16:31N 48°08' E 017°05'0 0.0
2018-Jun-23 16:00N 48°08' E 017°05'1 1.6
2018-Jun-23 15:31N 48°08' E 017°06'1 2.2
2018-Jun-23 15:00N 48°08' E 017°08'1 2.5
2018-Jun-23 14:31N 48°07' E 017°09'1 3.0
2018-Jun-23 14:00N 48°06' E 017°09'2 3.3
2018-Jun-23 13:31N 48°04' E 017°10'2 3.3
2018-Jun-23 13:01N 48°03' E 017°12'2 3.9
2018-Jun-23 12:30N 48°02' E 017°14'2 4.4
2018-Jun-23 12:00N 48°01' E 017°17'2 4.6
2018-Jun-23 11:30N 48°00' E 017°20'2 4.9
2018-Jun-23 11:00N 47°59' E 017°23'2 4.9
2018-Jun-23 10:31N 47°57' E 017°26'3 5.2
2018-Jun-23 10:01N 47°55' E 017°29'3 5.5
2018-Jun-23 09:31N 47°54' E 017°32'1 1.6
2018-Jun-23 08:59N 47°53' E 017°32'1 2.8
2018-Jun-23 08:30N 47°52' E 017°34'2 4.4
2018-Jun-23 08:00N 47°50' E 017°36'2 4.2
2018-Jun-23 07:30N 47°48' E 017°38'2 3.3
2018-Jun-23 06:52N 47°47' E 017°40'2 2.5
2018-Jun-23 06:09N 47°46' E 017°42'  
2018-Jun-18 00:22N 46°01' E 018°41'0 0.0
2018-Jun-17 22:14N 46°01' E 018°41'0 0.0
2018-Jun-17 21:20N 46°01' E 018°41'10 0.6
2018-Jun-17 05:01N 46°08' E 018°50'110.4
2018-Jun-17 04:58N 46°09' E 018°50'75 4.0
2018-Jun-16 10:10N 47°23' E 019°00'2 9.9
2018-Jun-16 10:00N 47°24' E 019°02'510.1
2018-Jun-16 09:30N 47°29' E 019°03'5 9.6
2018-Jun-16 09:00N 47°34' E 019°04'48 2.8
2018-Jun-15 15:45N 47°44' E 017°54'510.4
2018-Jun-15 15:17N 47°45' E 017°46'311.2
2018-Jun-15 15:00N 47°46' E 017°42'611.3
2018-Jun-15 14:30N 47°50' E 017°36'4 8.5
2018-Jun-15 14:00N 47°53' E 017°32'0 0.8
2018-Jun-15 13:31N 47°53' E 017°32'2 4.1
2018-Jun-15 13:00N 47°55' E 017°30'2 4.8
2018-Jun-15 12:30N 47°56' E 017°27'4 7.7
2018-Jun-15 12:00N 47°59' E 017°23'4 8.2
2018-Jun-15 11:30N 48°00' E 017°17'4 8.9
2018-Jun-15 11:00N 48°03' E 017°12'5 9.4
2018-Jun-15 10:31N 48°07' E 017°09'510.4
2018-Jun-15 10:00N 48°09' E 017°01'5 9.3
2018-Jun-15 09:31N 48°09' E 016°54'611.5
2018-Jun-15 08:58N 48°08' E 016°45'1111.8
2018-Jun-15 08:03N 48°10' E 016°29'0 8.5
2018-Jun-15 08:00N 48°10' E 016°29'0 0.7
2018-Jun-15 07:29N 48°11' E 016°29'3 4.6
2018-Jun-15 06:45N 48°13' E 016°25'0 0.0
2018-Jun-15 06:07N 48°13' E 016°25'0 0.0
2018-Jun-15 05:55N 48°13' E 016°25'  

Dump ship's entire track history